sensor_id;sensor_type;location;lat;lon;timestamp;P1;durP1;ratioP1;P2;durP2;ratioP2
54953;SDS011;40855;51.072;5.402;2022-11-20T00:00:56;34.15;;;15.60;;
54953;SDS011;40855;51.072;5.402;2022-11-20T00:03:21;22.13;;;13.20;;
54953;SDS011;40855;51.072;5.402;2022-11-20T00:05:47;24.75;;;14.27;;
54953;SDS011;40855;51.072;5.402;2022-11-20T00:08:13;26.05;;;14.82;;
54953;SDS011;40855;51.072;5.402;2022-11-20T00:10:39;32.60;;;15.93;;
54953;SDS011;40855;51.072;5.402;2022-11-20T00:13:06;27.30;;;14.73;;
54953;SDS011;40855;51.072;5.402;2022-11-20T00:15:32;29.52;;;14.55;;
54953;SDS011;40855;51.072;5.402;2022-11-20T00:17:58;30.02;;;14.75;;
54953;SDS011;40855;51.072;5.402;2022-11-20T00:20:24;22.33;;;14.68;;
54953;SDS011;40855;51.072;5.402;2022-11-20T00:22:50;26.88;;;14.85;;
54953;SDS011;40855;51.072;5.402;2022-11-20T00:25:16;23.15;;;14.77;;
54953;SDS011;40855;51.072;5.402;2022-11-20T00:27:41;27.48;;;15.15;;
54953;SDS011;40855;51.072;5.402;2022-11-20T00:30:07;24.95;;;14.68;;
54953;SDS011;40855;51.072;5.402;2022-11-20T00:32:33;34.63;;;16.63;;
54953;SDS011;40855;51.072;5.402;2022-11-20T00:34:59;27.55;;;15.77;;
54953;SDS011;40855;51.072;5.402;2022-11-20T00:37:24;26.58;;;14.20;;
54953;SDS011;40855;51.072;5.402;2022-11-20T00:39:51;30.00;;;16.50;;
54953;SDS011;40855;51.072;5.402;2022-11-20T00:42:16;29.75;;;16.25;;
54953;SDS011;40855;51.072;5.402;2022-11-20T00:44:42;30.35;;;15.48;;
54953;SDS011;40855;51.072;5.402;2022-11-20T00:47:08;29.17;;;15.10;;
54953;SDS011;40855;51.072;5.402;2022-11-20T00:49:33;39.95;;;18.63;;
54953;SDS011;40855;51.072;5.402;2022-11-20T00:51:59;38.05;;;18.63;;
54953;SDS011;40855;51.072;5.402;2022-11-20T00:54:25;25.35;;;14.77;;
54953;SDS011;40855;51.072;5.402;2022-11-20T00:56:52;31.60;;;16.08;;
54953;SDS011;40855;51.072;5.402;2022-11-20T00:59:18;36.10;;;17.20;;
54953;SDS011;40855;51.072;5.402;2022-11-20T01:01:44;26.52;;;14.95;;
54953;SDS011;40855;51.072;5.402;2022-11-20T01:04:09;24.92;;;14.57;;
54953;SDS011;40855;51.072;5.402;2022-11-20T01:06:36;22.60;;;14.45;;
54953;SDS011;40855;51.072;5.402;2022-11-20T01:09:07;26.45;;;14.80;;
54953;SDS011;40855;51.072;5.402;2022-11-20T01:11:36;26.30;;;14.57;;
54953;SDS011;40855;51.072;5.402;2022-11-20T01:14:05;27.42;;;15.25;;
54953;SDS011;40855;51.072;5.402;2022-11-20T01:16:37;22.52;;;13.90;;
54953;SDS011;40855;51.072;5.402;2022-11-20T01:19:05;28.92;;;14.95;;
54953;SDS011;40855;51.072;5.402;2022-11-20T01:21:37;24.50;;;15.07;;
54953;SDS011;40855;51.072;5.402;2022-11-20T01:24:04;27.80;;;14.95;;
54953;SDS011;40855;51.072;5.402;2022-11-20T01:26:33;25.90;;;15.57;;
54953;SDS011;40855;51.072;5.402;2022-11-20T01:29:00;27.80;;;16.23;;
54953;SDS011;40855;51.072;5.402;2022-11-20T01:33:55;28.83;;;15.52;;
54953;SDS011;40855;51.072;5.402;2022-11-20T01:36:23;24.10;;;14.68;;
54953;SDS011;40855;51.072;5.402;2022-11-20T01:38:51;26.77;;;14.60;;
54953;SDS011;40855;51.072;5.402;2022-11-20T01:41:18;25.23;;;14.82;;
54953;SDS011;40855;51.072;5.402;2022-11-20T01:44:03;26.70;;;14.40;;
54953;SDS011;40855;51.072;5.402;2022-11-20T01:46:31;27.63;;;15.13;;
54953;SDS011;40855;51.072;5.402;2022-11-20T01:49:09;27.02;;;15.00;;
54953;SDS011;40855;51.072;5.402;2022-11-20T01:51:44;25.70;;;14.07;;
54953;SDS011;40855;51.072;5.402;2022-11-20T01:54:16;28.00;;;15.30;;
54953;SDS011;40855;51.072;5.402;2022-11-20T01:56:45;24.83;;;14.77;;
54953;SDS011;40855;51.072;5.402;2022-11-20T01:59:13;24.98;;;15.32;;
54953;SDS011;40855;51.072;5.402;2022-11-20T02:01:42;23.65;;;14.48;;
54953;SDS011;40855;51.072;5.402;2022-11-20T02:04:08;27.65;;;15.27;;
54953;SDS011;40855;51.072;5.402;2022-11-20T02:06:45;24.88;;;14.35;;
54953;SDS011;40855;51.072;5.402;2022-11-20T02:09:14;30.42;;;14.35;;
54953;SDS011;40855;51.072;5.402;2022-11-20T02:11:40;23.92;;;14.50;;
54953;SDS011;40855;51.072;5.402;2022-11-20T02:14:05;25.40;;;14.68;;
54953;SDS011;40855;51.072;5.402;2022-11-20T02:16:36;26.15;;;15.68;;
54953;SDS011;40855;51.072;5.402;2022-11-20T02:19:05;27.52;;;16.13;;
54953;SDS011;40855;51.072;5.402;2022-11-20T02:24:15;24.52;;;15.55;;
54953;SDS011;40855;51.072;5.402;2022-11-20T02:29:19;23.67;;;14.88;;
54953;SDS011;40855;51.072;5.402;2022-11-20T02:34:51;26.10;;;15.15;;
54953;SDS011;40855;51.072;5.402;2022-11-20T02:37:17;26.55;;;14.60;;
54953;SDS011;40855;51.072;5.402;2022-11-20T02:39:45;24.88;;;14.85;;
54953;SDS011;40855;51.072;5.402;2022-11-20T02:42:12;27.38;;;15.07;;
54953;SDS011;40855;51.072;5.402;2022-11-20T02:44:38;24.15;;;14.57;;
54953;SDS011;40855;51.072;5.402;2022-11-20T02:47:03;22.08;;;14.52;;
54953;SDS011;40855;51.072;5.402;2022-11-20T02:49:29;23.63;;;14.65;;
54953;SDS011;40855;51.072;5.402;2022-11-20T02:51:55;23.45;;;14.20;;
54953;SDS011;40855;51.072;5.402;2022-11-20T02:54:20;27.50;;;15.75;;
54953;SDS011;40855;51.072;5.402;2022-11-20T02:56:46;20.90;;;14.07;;
54953;SDS011;40855;51.072;5.402;2022-11-20T02:59:12;22.33;;;14.80;;
54953;SDS011;40855;51.072;5.402;2022-11-20T03:01:37;24.75;;;14.70;;
54953;SDS011;40855;51.072;5.402;2022-11-20T03:04:03;22.08;;;14.48;;
54953;SDS011;40855;51.072;5.402;2022-11-20T03:06:29;23.05;;;14.07;;
54953;SDS011;40855;51.072;5.402;2022-11-20T03:08:55;27.00;;;15.98;;
54953;SDS011;40855;51.072;5.402;2022-11-20T03:11:20;24.98;;;15.27;;
54953;SDS011;40855;51.072;5.402;2022-11-20T03:13:46;25.90;;;15.35;;
54953;SDS011;40855;51.072;5.402;2022-11-20T03:16:13;23.30;;;14.23;;
54953;SDS011;40855;51.072;5.402;2022-11-20T03:18:43;27.70;;;15.85;;
54953;SDS011;40855;51.072;5.402;2022-11-20T03:21:09;24.67;;;15.65;;
54953;SDS011;40855;51.072;5.402;2022-11-20T03:23:37;25.98;;;15.38;;
54953;SDS011;40855;51.072;5.402;2022-11-20T03:26:11;27.20;;;14.82;;
54953;SDS011;40855;51.072;5.402;2022-11-20T03:28:47;26.80;;;14.90;;
54953;SDS011;40855;51.072;5.402;2022-11-20T03:31:19;26.40;;;15.13;;
54953;SDS011;40855;51.072;5.402;2022-11-20T03:33:56;23.35;;;14.73;;
54953;SDS011;40855;51.072;5.402;2022-11-20T03:36:22;22.20;;;13.40;;
54953;SDS011;40855;51.072;5.402;2022-11-20T03:38:48;26.15;;;14.95;;
54953;SDS011;40855;51.072;5.402;2022-11-20T03:41:17;24.48;;;15.00;;
54953;SDS011;40855;51.072;5.402;2022-11-20T03:43:58;23.08;;;15.55;;
54953;SDS011;40855;51.072;5.402;2022-11-20T03:46:29;23.38;;;15.00;;
54953;SDS011;40855;51.072;5.402;2022-11-20T03:48:55;24.30;;;15.18;;
54953;SDS011;40855;51.072;5.402;2022-11-20T03:51:25;24.63;;;15.05;;
54953;SDS011;40855;51.072;5.402;2022-11-20T03:53:55;25.67;;;15.10;;
54953;SDS011;40855;51.072;5.402;2022-11-20T03:56:25;27.13;;;15.02;;
54953;SDS011;40855;51.072;5.402;2022-11-20T03:58:53;25.48;;;14.32;;
54953;SDS011;40855;51.072;5.402;2022-11-20T04:01:20;25.60;;;15.00;;
54953;SDS011;40855;51.072;5.402;2022-11-20T04:03:47;26.80;;;15.93;;
54953;SDS011;40855;51.072;5.402;2022-11-20T04:06:14;24.23;;;14.88;;
54953;SDS011;40855;51.072;5.402;2022-11-20T04:08:42;25.95;;;15.05;;
54953;SDS011;40855;51.072;5.402;2022-11-20T04:11:11;27.98;;;15.70;;
54953;SDS011;40855;51.072;5.402;2022-11-20T04:13:57;21.65;;;13.65;;
54953;SDS011;40855;51.072;5.402;2022-11-20T04:16:25;27.17;;;16.30;;
54953;SDS011;40855;51.072;5.402;2022-11-20T04:18:52;24.92;;;15.50;;
54953;SDS011;40855;51.072;5.402;2022-11-20T04:21:22;24.15;;;14.82;;
54953;SDS011;40855;51.072;5.402;2022-11-20T04:23:49;25.00;;;15.65;;
54953;SDS011;40855;51.072;5.402;2022-11-20T04:26:15;26.45;;;15.32;;
54953;SDS011;40855;51.072;5.402;2022-11-20T04:28:41;22.90;;;15.00;;
54953;SDS011;40855;51.072;5.402;2022-11-20T04:31:08;27.00;;;14.98;;
54953;SDS011;40855;51.072;5.402;2022-11-20T04:33:35;28.50;;;14.85;;
54953;SDS011;40855;51.072;5.402;2022-11-20T04:36:05;22.88;;;14.90;;
54953;SDS011;40855;51.072;5.402;2022-11-20T04:38:37;27.50;;;15.70;;
54953;SDS011;40855;51.072;5.402;2022-11-20T04:41:05;26.23;;;16.73;;
54953;SDS011;40855;51.072;5.402;2022-11-20T04:43:32;23.83;;;15.00;;
54953;SDS011;40855;51.072;5.402;2022-11-20T04:45:58;28.52;;;15.65;;
54953;SDS011;40855;51.072;5.402;2022-11-20T04:48:25;27.27;;;15.43;;
54953;SDS011;40855;51.072;5.402;2022-11-20T04:50:52;27.25;;;15.93;;
54953;SDS011;40855;51.072;5.402;2022-11-20T04:53:18;26.08;;;16.55;;
54953;SDS011;40855;51.072;5.402;2022-11-20T04:55:45;29.83;;;15.32;;
54953;SDS011;40855;51.072;5.402;2022-11-20T04:58:11;26.08;;;15.68;;
54953;SDS011;40855;51.072;5.402;2022-11-20T05:00:37;25.00;;;14.73;;
54953;SDS011;40855;51.072;5.402;2022-11-20T05:03:03;23.17;;;14.95;;
54953;SDS011;40855;51.072;5.402;2022-11-20T05:05:29;25.13;;;15.45;;
54953;SDS011;40855;51.072;5.402;2022-11-20T05:07:58;25.95;;;15.68;;
54953;SDS011;40855;51.072;5.402;2022-11-20T05:10:24;26.13;;;15.30;;
54953;SDS011;40855;51.072;5.402;2022-11-20T05:12:50;24.40;;;14.90;;
54953;SDS011;40855;51.072;5.402;2022-11-20T05:15:16;29.23;;;16.33;;
54953;SDS011;40855;51.072;5.402;2022-11-20T05:17:46;29.27;;;16.88;;
54953;SDS011;40855;51.072;5.402;2022-11-20T05:20:13;27.13;;;17.02;;
54953;SDS011;40855;51.072;5.402;2022-11-20T05:22:38;28.55;;;16.55;;
54953;SDS011;40855;51.072;5.402;2022-11-20T05:25:04;30.58;;;17.27;;
54953;SDS011;40855;51.072;5.402;2022-11-20T05:27:30;32.22;;;18.33;;
54953;SDS011;40855;51.072;5.402;2022-11-20T05:29:55;30.10;;;17.83;;
54953;SDS011;40855;51.072;5.402;2022-11-20T05:32:21;32.38;;;18.27;;
54953;SDS011;40855;51.072;5.402;2022-11-20T05:34:50;35.33;;;19.42;;
54953;SDS011;40855;51.072;5.402;2022-11-20T05:37:16;33.85;;;18.48;;
54953;SDS011;40855;51.072;5.402;2022-11-20T05:39:42;40.10;;;19.52;;
54953;SDS011;40855;51.072;5.402;2022-11-20T05:42:07;36.17;;;18.85;;
54953;SDS011;40855;51.072;5.402;2022-11-20T05:44:51;39.30;;;19.35;;
54953;SDS011;40855;51.072;5.402;2022-11-20T05:47:17;34.72;;;20.17;;
54953;SDS011;40855;51.072;5.402;2022-11-20T05:49:43;38.75;;;20.73;;
54953;SDS011;40855;51.072;5.402;2022-11-20T05:52:08;42.50;;;21.02;;
54953;SDS011;40855;51.072;5.402;2022-11-20T05:54:34;45.65;;;21.83;;
54953;SDS011;40855;51.072;5.402;2022-11-20T05:56:59;49.08;;;22.42;;
54953;SDS011;40855;51.072;5.402;2022-11-20T05:59:25;44.40;;;23.58;;
54953;SDS011;40855;51.072;5.402;2022-11-20T06:01:51;46.75;;;24.33;;
54953;SDS011;40855;51.072;5.402;2022-11-20T06:04:17;52.72;;;22.98;;
54953;SDS011;40855;51.072;5.402;2022-11-20T06:06:42;50.08;;;22.88;;
54953;SDS011;40855;51.072;5.402;2022-11-20T06:09:08;50.88;;;22.90;;
54953;SDS011;40855;51.072;5.402;2022-11-20T06:11:33;51.80;;;22.45;;
54953;SDS011;40855;51.072;5.402;2022-11-20T06:13:59;65.22;;;25.80;;
54953;SDS011;40855;51.072;5.402;2022-11-20T06:16:25;57.53;;;23.35;;
54953;SDS011;40855;51.072;5.402;2022-11-20T06:18:50;61.83;;;23.38;;
54953;SDS011;40855;51.072;5.402;2022-11-20T06:21:17;57.45;;;23.15;;
54953;SDS011;40855;51.072;5.402;2022-11-20T06:23:45;55.92;;;23.90;;
54953;SDS011;40855;51.072;5.402;2022-11-20T06:26:19;51.78;;;23.15;;
54953;SDS011;40855;51.072;5.402;2022-11-20T06:28:46;57.65;;;24.00;;
54953;SDS011;40855;51.072;5.402;2022-11-20T06:31:13;58.08;;;23.80;;
54953;SDS011;40855;51.072;5.402;2022-11-20T06:33:40;59.80;;;23.85;;
54953;SDS011;40855;51.072;5.402;2022-11-20T06:36:06;54.22;;;23.02;;
54953;SDS011;40855;51.072;5.402;2022-11-20T06:38:32;68.28;;;24.80;;
54953;SDS011;40855;51.072;5.402;2022-11-20T06:40:58;59.92;;;24.05;;
54953;SDS011;40855;51.072;5.402;2022-11-20T06:43:24;56.92;;;23.75;;
54953;SDS011;40855;51.072;5.402;2022-11-20T06:45:53;49.42;;;21.33;;
54953;SDS011;40855;51.072;5.402;2022-11-20T06:48:20;43.63;;;19.20;;
54953;SDS011;40855;51.072;5.402;2022-11-20T06:50:46;46.00;;;20.33;;
54953;SDS011;40855;51.072;5.402;2022-11-20T06:53:11;43.80;;;19.58;;
54953;SDS011;40855;51.072;5.402;2022-11-20T06:55:41;47.95;;;18.80;;
54953;SDS011;40855;51.072;5.402;2022-11-20T06:58:08;44.95;;;20.77;;
54953;SDS011;40855;51.072;5.402;2022-11-20T07:00:34;42.97;;;20.35;;
54953;SDS011;40855;51.072;5.402;2022-11-20T07:03:09;51.28;;;21.10;;
54953;SDS011;40855;51.072;5.402;2022-11-20T07:05:35;49.28;;;21.73;;
54953;SDS011;40855;51.072;5.402;2022-11-20T07:08:02;41.20;;;20.33;;
54953;SDS011;40855;51.072;5.402;2022-11-20T07:10:28;41.75;;;21.05;;
54953;SDS011;40855;51.072;5.402;2022-11-20T07:12:54;42.35;;;20.80;;
54953;SDS011;40855;51.072;5.402;2022-11-20T07:15:20;36.30;;;20.08;;
54953;SDS011;40855;51.072;5.402;2022-11-20T07:17:47;45.38;;;22.05;;
54953;SDS011;40855;51.072;5.402;2022-11-20T07:20:13;42.40;;;21.23;;
54953;SDS011;40855;51.072;5.402;2022-11-20T07:22:39;38.97;;;20.65;;
54953;SDS011;40855;51.072;5.402;2022-11-20T07:25:06;39.35;;;21.23;;
54953;SDS011;40855;51.072;5.402;2022-11-20T07:27:32;41.92;;;20.88;;
54953;SDS011;40855;51.072;5.402;2022-11-20T07:29:58;44.53;;;22.00;;
54953;SDS011;40855;51.072;5.402;2022-11-20T07:32:23;46.05;;;22.52;;
54953;SDS011;40855;51.072;5.402;2022-11-20T07:34:50;45.42;;;23.10;;
54953;SDS011;40855;51.072;5.402;2022-11-20T07:37:15;51.90;;;22.45;;
54953;SDS011;40855;51.072;5.402;2022-11-20T07:39:42;47.08;;;22.65;;
54953;SDS011;40855;51.072;5.402;2022-11-20T07:42:08;47.60;;;23.17;;
54953;SDS011;40855;51.072;5.402;2022-11-20T07:44:34;42.25;;;22.08;;
54953;SDS011;40855;51.072;5.402;2022-11-20T07:47:00;38.58;;;21.50;;
54953;SDS011;40855;51.072;5.402;2022-11-20T07:49:26;43.58;;;22.10;;
54953;SDS011;40855;51.072;5.402;2022-11-20T07:51:52;41.88;;;23.00;;
54953;SDS011;40855;51.072;5.402;2022-11-20T07:54:19;48.35;;;24.17;;
54953;SDS011;40855;51.072;5.402;2022-11-20T07:56:45;46.80;;;23.65;;
54953;SDS011;40855;51.072;5.402;2022-11-20T07:59:11;42.72;;;22.73;;
54953;SDS011;40855;51.072;5.402;2022-11-20T08:01:38;45.00;;;24.45;;
54953;SDS011;40855;51.072;5.402;2022-11-20T08:04:04;49.03;;;23.35;;
54953;SDS011;40855;51.072;5.402;2022-11-20T08:06:29;47.25;;;24.05;;
54953;SDS011;40855;51.072;5.402;2022-11-20T08:08:55;44.20;;;22.67;;
54953;SDS011;40855;51.072;5.402;2022-11-20T08:11:21;48.28;;;23.33;;
54953;SDS011;40855;51.072;5.402;2022-11-20T08:14:05;44.63;;;23.60;;
54953;SDS011;40855;51.072;5.402;2022-11-20T08:16:37;51.92;;;23.63;;
54953;SDS011;40855;51.072;5.402;2022-11-20T08:19:10;50.22;;;23.98;;
54953;SDS011;40855;51.072;5.402;2022-11-20T08:21:36;51.65;;;24.42;;
54953;SDS011;40855;51.072;5.402;2022-11-20T08:24:01;53.05;;;24.63;;
54953;SDS011;40855;51.072;5.402;2022-11-20T08:26:27;42.45;;;23.58;;
54953;SDS011;40855;51.072;5.402;2022-11-20T08:28:53;54.92;;;24.30;;
54953;SDS011;40855;51.072;5.402;2022-11-20T08:31:20;50.45;;;24.73;;
54953;SDS011;40855;51.072;5.402;2022-11-20T08:33:46;52.47;;;25.20;;
54953;SDS011;40855;51.072;5.402;2022-11-20T08:36:13;53.75;;;25.02;;
54953;SDS011;40855;51.072;5.402;2022-11-20T08:38:39;56.42;;;24.92;;
54953;SDS011;40855;51.072;5.402;2022-11-20T08:41:05;59.92;;;27.02;;
54953;SDS011;40855;51.072;5.402;2022-11-20T08:43:53;58.70;;;26.35;;
54953;SDS011;40855;51.072;5.402;2022-11-20T08:46:20;55.10;;;24.83;;
54953;SDS011;40855;51.072;5.402;2022-11-20T08:48:46;58.00;;;25.55;;
54953;SDS011;40855;51.072;5.402;2022-11-20T08:51:12;55.20;;;25.40;;
54953;SDS011;40855;51.072;5.402;2022-11-20T08:53:38;56.28;;;26.92;;
54953;SDS011;40855;51.072;5.402;2022-11-20T08:56:04;51.40;;;24.63;;
54953;SDS011;40855;51.072;5.402;2022-11-20T08:58:30;59.33;;;27.02;;
54953;SDS011;40855;51.072;5.402;2022-11-20T09:00:56;54.50;;;24.15;;
54953;SDS011;40855;51.072;5.402;2022-11-20T09:03:22;60.22;;;27.38;;
54953;SDS011;40855;51.072;5.402;2022-11-20T09:05:48;51.38;;;24.65;;
54953;SDS011;40855;51.072;5.402;2022-11-20T09:08:15;62.65;;;26.38;;
54953;SDS011;40855;51.072;5.402;2022-11-20T09:10:40;58.03;;;25.63;;
54953;SDS011;40855;51.072;5.402;2022-11-20T09:13:06;56.50;;;25.52;;
54953;SDS011;40855;51.072;5.402;2022-11-20T09:15:32;62.20;;;26.70;;
54953;SDS011;40855;51.072;5.402;2022-11-20T09:17:59;56.08;;;25.25;;
54953;SDS011;40855;51.072;5.402;2022-11-20T09:20:27;52.28;;;26.17;;
54953;SDS011;40855;51.072;5.402;2022-11-20T09:22:54;54.85;;;25.95;;
54953;SDS011;40855;51.072;5.402;2022-11-20T09:25:20;58.63;;;26.17;;
54953;SDS011;40855;51.072;5.402;2022-11-20T09:27:46;58.58;;;25.55;;
54953;SDS011;40855;51.072;5.402;2022-11-20T09:30:13;62.08;;;28.70;;
54953;SDS011;40855;51.072;5.402;2022-11-20T09:32:40;63.08;;;26.55;;
54953;SDS011;40855;51.072;5.402;2022-11-20T09:35:06;56.90;;;25.73;;
54953;SDS011;40855;51.072;5.402;2022-11-20T09:37:32;59.35;;;27.02;;
54953;SDS011;40855;51.072;5.402;2022-11-20T09:39:57;65.38;;;25.95;;
54953;SDS011;40855;51.072;5.402;2022-11-20T09:42:27;59.92;;;25.27;;
54953;SDS011;40855;51.072;5.402;2022-11-20T09:47:39;59.15;;;24.65;;
54953;SDS011;40855;51.072;5.402;2022-11-20T09:55:33;60.25;;;26.35;;
54953;SDS011;40855;51.072;5.402;2022-11-20T09:58:01;67.55;;;28.27;;
54953;SDS011;40855;51.072;5.402;2022-11-20T10:00:30;57.45;;;25.48;;
54953;SDS011;40855;51.072;5.402;2022-11-20T10:05:45;55.45;;;25.48;;
54953;SDS011;40855;51.072;5.402;2022-11-20T10:10:56;58.55;;;25.40;;
54953;SDS011;40855;51.072;5.402;2022-11-20T10:21:53;59.38;;;25.52;;
54953;SDS011;40855;51.072;5.402;2022-11-20T10:24:52;59.83;;;27.08;;
54953;SDS011;40855;51.072;5.402;2022-11-20T10:32:35;68.40;;;27.30;;
54953;SDS011;40855;51.072;5.402;2022-11-20T10:37:40;65.60;;;27.50;;
54953;SDS011;40855;51.072;5.402;2022-11-20T10:43:01;78.97;;;28.45;;
54953;SDS011;40855;51.072;5.402;2022-11-20T10:45:48;70.53;;;27.48;;
54953;SDS011;40855;51.072;5.402;2022-11-20T10:48:24;68.85;;;27.05;;
54953;SDS011;40855;51.072;5.402;2022-11-20T10:53:42;79.63;;;30.83;;
54953;SDS011;40855;51.072;5.402;2022-11-20T11:01:21;80.45;;;27.95;;
54953;SDS011;40855;51.072;5.402;2022-11-20T11:03:55;77.50;;;29.00;;
54953;SDS011;40855;51.072;5.402;2022-11-20T11:09:11;79.15;;;28.05;;
54953;SDS011;40855;51.072;5.402;2022-11-20T11:11:41;88.50;;;28.73;;
54953;SDS011;40855;51.072;5.402;2022-11-20T11:14:14;89.32;;;30.38;;
54953;SDS011;40855;51.072;5.402;2022-11-20T11:16:48;91.70;;;29.65;;
54953;SDS011;40855;51.072;5.402;2022-11-20T11:19:16;97.10;;;30.77;;
54953;SDS011;40855;51.072;5.402;2022-11-20T11:22:00;78.28;;;27.48;;
54953;SDS011;40855;51.072;5.402;2022-11-20T11:24:35;91.00;;;28.38;;
54953;SDS011;40855;51.072;5.402;2022-11-20T11:27:02;87.75;;;29.92;;
54953;SDS011;40855;51.072;5.402;2022-11-20T11:29:35;98.38;;;29.48;;
54953;SDS011;40855;51.072;5.402;2022-11-20T11:32:05;92.88;;;30.23;;
54953;SDS011;40855;51.072;5.402;2022-11-20T11:34:32;79.78;;;28.17;;
54953;SDS011;40855;51.072;5.402;2022-11-20T11:36:57;84.05;;;28.33;;
54953;SDS011;40855;51.072;5.402;2022-11-20T11:39:26;87.35;;;30.10;;
54953;SDS011;40855;51.072;5.402;2022-11-20T11:41:54;100.15;;;31.27;;
54953;SDS011;40855;51.072;5.402;2022-11-20T11:44:21;91.00;;;29.55;;
54953;SDS011;40855;51.072;5.402;2022-11-20T11:47:18;95.75;;;29.35;;
54953;SDS011;40855;51.072;5.402;2022-11-20T12:06:37;81.10;;;27.48;;
54953;SDS011;40855;51.072;5.402;2022-11-20T12:09:08;92.28;;;29.25;;
54953;SDS011;40855;51.072;5.402;2022-11-20T12:14:26;84.28;;;29.90;;
54953;SDS011;40855;51.072;5.402;2022-11-20T12:16:58;81.70;;;29.15;;
54953;SDS011;40855;51.072;5.402;2022-11-20T12:19:26;72.43;;;26.55;;
54953;SDS011;40855;51.072;5.402;2022-11-20T12:22:18;79.78;;;27.95;;
54953;SDS011;40855;51.072;5.402;2022-11-20T12:30:13;64.68;;;25.13;;
54953;SDS011;40855;51.072;5.402;2022-11-20T12:38:47;68.65;;;25.80;;
54953;SDS011;40855;51.072;5.402;2022-11-20T12:53:40;56.13;;;22.67;;
54953;SDS011;40855;51.072;5.402;2022-11-20T13:01:52;48.40;;;18.90;;
54953;SDS011;40855;51.072;5.402;2022-11-20T13:07:41;40.03;;;17.20;;
54953;SDS011;40855;51.072;5.402;2022-11-20T13:10:18;38.28;;;16.15;;
54953;SDS011;40855;51.072;5.402;2022-11-20T13:13:11;44.13;;;16.58;;
54953;SDS011;40855;51.072;5.402;2022-11-20T13:18:18;32.65;;;13.48;;
54953;SDS011;40855;51.072;5.402;2022-11-20T13:20:45;30.70;;;14.18;;
54953;SDS011;40855;51.072;5.402;2022-11-20T13:23:22;32.30;;;13.82;;
54953;SDS011;40855;51.072;5.402;2022-11-20T13:25:50;26.38;;;11.38;;
54953;SDS011;40855;51.072;5.402;2022-11-20T13:30:53;27.92;;;12.13;;
54953;SDS011;40855;51.072;5.402;2022-11-20T13:35:56;34.00;;;11.70;;
54953;SDS011;40855;51.072;5.402;2022-11-20T13:38:22;26.40;;;10.82;;
54953;SDS011;40855;51.072;5.402;2022-11-20T13:40:53;31.65;;;11.25;;
54953;SDS011;40855;51.072;5.402;2022-11-20T13:46:07;18.45;;;6.72;;
54953;SDS011;40855;51.072;5.402;2022-11-20T13:48:44;18.08;;;6.88;;
54953;SDS011;40855;51.072;5.402;2022-11-20T13:51:16;15.18;;;5.95;;
54953;SDS011;40855;51.072;5.402;2022-11-20T14:00:24;2.95;;;1.90;;
54953;SDS011;40855;51.072;5.402;2022-11-20T14:02:31;8.23;;;1.92;;
54953;SDS011;40855;51.072;5.402;2022-11-20T14:04:58;5.05;;;2.30;;
54953;SDS011;40855;51.072;5.402;2022-11-20T14:07:27;7.88;;;2.60;;
54953;SDS011;40855;51.072;5.402;2022-11-20T14:10:02;9.73;;;2.10;;
54953;SDS011;40855;51.072;5.402;2022-11-20T14:12:32;9.27;;;1.95;;
54953;SDS011;40855;51.072;5.402;2022-11-20T14:14:59;6.35;;;2.05;;
54953;SDS011;40855;51.072;5.402;2022-11-20T14:19:53;4.78;;;2.20;;
54953;SDS011;40855;51.072;5.402;2022-11-20T14:22:26;8.25;;;1.73;;
54953;SDS011;40855;51.072;5.402;2022-11-20T14:27:37;13.35;;;2.67;;
54953;SDS011;40855;51.072;5.402;2022-11-20T14:30:26;8.48;;;2.60;;
54953;SDS011;40855;51.072;5.402;2022-11-20T14:32:55;6.00;;;2.15;;
54953;SDS011;40855;51.072;5.402;2022-11-20T14:35:27;8.88;;;2.13;;
54953;SDS011;40855;51.072;5.402;2022-11-20T14:37:55;4.97;;;2.38;;
54953;SDS011;40855;51.072;5.402;2022-11-20T14:42:53;5.47;;;2.20;;
54953;SDS011;40855;51.072;5.402;2022-11-20T14:45:19;9.88;;;2.63;;
54953;SDS011;40855;51.072;5.402;2022-11-20T14:47:46;8.82;;;2.17;;
54953;SDS011;40855;51.072;5.402;2022-11-20T14:50:14;9.88;;;2.30;;
54953;SDS011;40855;51.072;5.402;2022-11-20T14:52:51;5.38;;;2.42;;
54953;SDS011;40855;51.072;5.402;2022-11-20T14:55:34;5.55;;;2.40;;
54953;SDS011;40855;51.072;5.402;2022-11-20T14:58:20;10.40;;;2.35;;
54953;SDS011;40855;51.072;5.402;2022-11-20T15:00:58;9.95;;;2.67;;
54953;SDS011;40855;51.072;5.402;2022-11-20T15:03:34;3.78;;;2.22;;
54953;SDS011;40855;51.072;5.402;2022-11-20T15:06:02;3.40;;;3.00;;
54953;SDS011;40855;51.072;5.402;2022-11-20T15:08:28;8.85;;;2.72;;
54953;SDS011;40855;51.072;5.402;2022-11-20T15:10:54;9.55;;;3.35;;
54953;SDS011;40855;51.072;5.402;2022-11-20T15:13:25;6.25;;;3.00;;
54953;SDS011;40855;51.072;5.402;2022-11-20T15:15:55;6.72;;;3.42;;
54953;SDS011;40855;51.072;5.402;2022-11-20T15:20:58;11.60;;;3.78;;
54953;SDS011;40855;51.072;5.402;2022-11-20T15:23:27;10.27;;;4.07;;
54953;SDS011;40855;51.072;5.402;2022-11-20T15:25:53;7.00;;;2.95;;
54953;SDS011;40855;51.072;5.402;2022-11-20T15:28:21;9.13;;;3.90;;
54953;SDS011;40855;51.072;5.402;2022-11-20T15:31:06;7.97;;;3.40;;
54953;SDS011;40855;51.072;5.402;2022-11-20T15:33:32;5.72;;;3.47;;
54953;SDS011;40855;51.072;5.402;2022-11-20T15:35:58;8.60;;;4.03;;
54953;SDS011;40855;51.072;5.402;2022-11-20T15:38:24;6.55;;;3.50;;
54953;SDS011;40855;51.072;5.402;2022-11-20T15:40:50;12.05;;;3.88;;
54953;SDS011;40855;51.072;5.402;2022-11-20T15:43:16;7.03;;;3.45;;
54953;SDS011;40855;51.072;5.402;2022-11-20T15:45:45;5.30;;;3.67;;
54953;SDS011;40855;51.072;5.402;2022-11-20T15:48:16;6.05;;;3.40;;
54953;SDS011;40855;51.072;5.402;2022-11-20T15:53:39;7.05;;;4.00;;
54953;SDS011;40855;51.072;5.402;2022-11-20T15:56:12;8.63;;;4.50;;
54953;SDS011;40855;51.072;5.402;2022-11-20T15:58:39;10.50;;;4.70;;
54953;SDS011;40855;51.072;5.402;2022-11-20T16:01:09;8.45;;;4.60;;
54953;SDS011;40855;51.072;5.402;2022-11-20T16:03:40;6.95;;;4.45;;
54953;SDS011;40855;51.072;5.402;2022-11-20T16:06:06;8.77;;;4.82;;
54953;SDS011;40855;51.072;5.402;2022-11-20T16:08:32;10.25;;;5.07;;
54953;SDS011;40855;51.072;5.402;2022-11-20T16:10:58;5.80;;;4.45;;
54953;SDS011;40855;51.072;5.402;2022-11-20T16:13:23;9.65;;;4.82;;
54953;SDS011;40855;51.072;5.402;2022-11-20T16:16:11;6.50;;;4.50;;
54953;SDS011;40855;51.072;5.402;2022-11-20T16:18:53;11.30;;;5.07;;
54953;SDS011;40855;51.072;5.402;2022-11-20T16:21:19;6.20;;;4.25;;
54953;SDS011;40855;51.072;5.402;2022-11-20T16:23:45;5.18;;;4.63;;
54953;SDS011;40855;51.072;5.402;2022-11-20T16:26:14;5.75;;;4.38;;
54953;SDS011;40855;51.072;5.402;2022-11-20T16:28:42;4.93;;;4.47;;
54953;SDS011;40855;51.072;5.402;2022-11-20T16:31:11;6.93;;;4.30;;
54953;SDS011;40855;51.072;5.402;2022-11-20T16:33:38;8.02;;;4.63;;
54953;SDS011;40855;51.072;5.402;2022-11-20T16:36:11;10.70;;;5.45;;
54953;SDS011;40855;51.072;5.402;2022-11-20T16:38:39;7.95;;;4.72;;
54953;SDS011;40855;51.072;5.402;2022-11-20T16:41:05;7.00;;;5.40;;
54953;SDS011;40855;51.072;5.402;2022-11-20T16:43:40;11.02;;;5.97;;
54953;SDS011;40855;51.072;5.402;2022-11-20T16:46:14;10.77;;;6.32;;
54953;SDS011;40855;51.072;5.402;2022-11-20T16:48:40;9.85;;;5.90;;
54953;SDS011;40855;51.072;5.402;2022-11-20T16:51:09;12.43;;;6.45;;